sensor_id;sensor_type;location;lat;lon;timestamp;P1;durP1;ratioP1;P2;durP2;ratioP2
29686;SDS011;16599;47.078;15.536;2022-11-20T00:01:09;69.68;;;27.13;;
29686;SDS011;16599;47.078;15.536;2022-11-20T00:03:38;69.95;;;26.85;;
29686;SDS011;16599;47.078;15.536;2022-11-20T00:06:09;68.03;;;26.40;;
29686;SDS011;16599;47.078;15.536;2022-11-20T00:08:38;59.13;;;25.70;;
29686;SDS011;16599;47.078;15.536;2022-11-20T00:11:07;51.30;;;21.90;;
29686;SDS011;16599;47.078;15.536;2022-11-20T00:13:42;49.30;;;21.02;;
29686;SDS011;16599;47.078;15.536;2022-11-20T00:16:10;57.65;;;23.27;;
29686;SDS011;16599;47.078;15.536;2022-11-20T00:18:38;61.25;;;23.67;;
29686;SDS011;16599;47.078;15.536;2022-11-20T00:21:06;58.92;;;22.45;;
29686;SDS011;16599;47.078;15.536;2022-11-20T00:23:36;56.13;;;22.65;;
29686;SDS011;16599;47.078;15.536;2022-11-20T00:26:03;52.80;;;21.60;;
29686;SDS011;16599;47.078;15.536;2022-11-20T00:28:32;53.42;;;21.13;;
29686;SDS011;16599;47.078;15.536;2022-11-20T00:31:00;54.75;;;20.63;;
29686;SDS011;16599;47.078;15.536;2022-11-20T00:33:32;54.25;;;20.70;;
29686;SDS011;16599;47.078;15.536;2022-11-20T00:36:00;48.88;;;19.63;;
29686;SDS011;16599;47.078;15.536;2022-11-20T00:40:59;47.80;;;19.08;;
29686;SDS011;16599;47.078;15.536;2022-11-20T00:43:26;47.78;;;19.98;;
29686;SDS011;16599;47.078;15.536;2022-11-20T00:46:00;50.88;;;20.70;;
29686;SDS011;16599;47.078;15.536;2022-11-20T00:48:29;49.75;;;19.00;;
29686;SDS011;16599;47.078;15.536;2022-11-20T00:50:56;47.75;;;19.67;;
29686;SDS011;16599;47.078;15.536;2022-11-20T00:53:23;47.53;;;19.25;;
29686;SDS011;16599;47.078;15.536;2022-11-20T00:55:58;45.92;;;19.50;;
29686;SDS011;16599;47.078;15.536;2022-11-20T00:58:28;49.90;;;20.38;;
29686;SDS011;16599;47.078;15.536;2022-11-20T01:01:01;45.28;;;18.95;;
29686;SDS011;16599;47.078;15.536;2022-11-20T01:03:32;43.75;;;18.67;;
29686;SDS011;16599;47.078;15.536;2022-11-20T01:06:01;42.83;;;18.33;;
29686;SDS011;16599;47.078;15.536;2022-11-20T01:08:29;43.53;;;17.17;;
29686;SDS011;16599;47.078;15.536;2022-11-20T01:10:58;50.80;;;20.13;;
29686;SDS011;16599;47.078;15.536;2022-11-20T01:16:08;57.90;;;21.50;;
29686;SDS011;16599;47.078;15.536;2022-11-20T01:21:07;61.95;;;22.30;;
29686;SDS011;16599;47.078;15.536;2022-11-20T01:23:37;53.35;;;22.42;;
29686;SDS011;16599;47.078;15.536;2022-11-20T01:26:06;61.80;;;22.80;;
29686;SDS011;16599;47.078;15.536;2022-11-20T01:28:35;56.88;;;21.75;;
29686;SDS011;16599;47.078;15.536;2022-11-20T01:31:10;52.58;;;20.92;;
29686;SDS011;16599;47.078;15.536;2022-11-20T01:33:52;57.67;;;21.63;;
29686;SDS011;16599;47.078;15.536;2022-11-20T01:36:21;55.65;;;21.48;;
29686;SDS011;16599;47.078;15.536;2022-11-20T01:38:53;61.22;;;21.88;;
29686;SDS011;16599;47.078;15.536;2022-11-20T01:41:22;59.28;;;21.73;;
29686;SDS011;16599;47.078;15.536;2022-11-20T01:44:08;51.38;;;20.35;;
29686;SDS011;16599;47.078;15.536;2022-11-20T01:46:38;70.07;;;20.92;;
29686;SDS011;16599;47.078;15.536;2022-11-20T01:51:48;62.05;;;22.25;;
29686;SDS011;16599;47.078;15.536;2022-11-20T01:54:24;112.55;;;42.35;;
29686;SDS011;16599;47.078;15.536;2022-11-20T01:56:56;79.93;;;32.25;;
29686;SDS011;16599;47.078;15.536;2022-11-20T01:59:25;67.13;;;24.77;;
29686;SDS011;16599;47.078;15.536;2022-11-20T02:01:54;60.28;;;23.00;;
29686;SDS011;16599;47.078;15.536;2022-11-20T02:04:21;69.25;;;22.73;;
29686;SDS011;16599;47.078;15.536;2022-11-20T02:06:59;64.40;;;22.45;;
29686;SDS011;16599;47.078;15.536;2022-11-20T02:09:27;60.35;;;21.73;;
29686;SDS011;16599;47.078;15.536;2022-11-20T02:11:54;71.38;;;22.08;;
29686;SDS011;16599;47.078;15.536;2022-11-20T02:14:22;71.53;;;22.10;;
29686;SDS011;16599;47.078;15.536;2022-11-20T02:16:49;68.95;;;20.25;;
29686;SDS011;16599;47.078;15.536;2022-11-20T02:22:02;64.20;;;22.60;;
29686;SDS011;16599;47.078;15.536;2022-11-20T02:24:37;62.60;;;21.90;;
29686;SDS011;16599;47.078;15.536;2022-11-20T02:27:06;70.32;;;22.70;;
29686;SDS011;16599;47.078;15.536;2022-11-20T02:37:23;59.38;;;21.67;;
29686;SDS011;16599;47.078;15.536;2022-11-20T02:39:56;60.30;;;23.23;;
29686;SDS011;16599;47.078;15.536;2022-11-20T02:42:23;55.20;;;20.92;;
29686;SDS011;16599;47.078;15.536;2022-11-20T02:44:50;60.97;;;22.27;;
29686;SDS011;16599;47.078;15.536;2022-11-20T02:47:17;61.50;;;22.85;;
29686;SDS011;16599;47.078;15.536;2022-11-20T02:49:44;53.65;;;21.30;;
29686;SDS011;16599;47.078;15.536;2022-11-20T02:52:10;48.60;;;21.00;;
29686;SDS011;16599;47.078;15.536;2022-11-20T02:54:37;64.43;;;23.17;;
29686;SDS011;16599;47.078;15.536;2022-11-20T02:57:04;56.20;;;21.20;;
29686;SDS011;16599;47.078;15.536;2022-11-20T02:59:31;62.25;;;22.60;;
29686;SDS011;16599;47.078;15.536;2022-11-20T03:01:58;56.28;;;22.00;;
29686;SDS011;16599;47.078;15.536;2022-11-20T03:04:24;52.75;;;21.02;;
29686;SDS011;16599;47.078;15.536;2022-11-20T03:06:51;60.17;;;22.67;;
29686;SDS011;16599;47.078;15.536;2022-11-20T03:09:18;59.13;;;21.40;;
29686;SDS011;16599;47.078;15.536;2022-11-20T03:11:45;56.15;;;21.35;;
29686;SDS011;16599;47.078;15.536;2022-11-20T03:14:12;57.08;;;22.05;;
29686;SDS011;16599;47.078;15.536;2022-11-20T03:16:39;53.63;;;20.40;;
29686;SDS011;16599;47.078;15.536;2022-11-20T03:19:06;62.95;;;23.52;;
29686;SDS011;16599;47.078;15.536;2022-11-20T03:21:33;57.15;;;21.13;;
29686;SDS011;16599;47.078;15.536;2022-11-20T03:24:01;56.70;;;21.08;;
29686;SDS011;16599;47.078;15.536;2022-11-20T03:26:28;67.00;;;22.85;;
29686;SDS011;16599;47.078;15.536;2022-11-20T03:28:56;61.22;;;22.52;;
29686;SDS011;16599;47.078;15.536;2022-11-20T03:31:26;53.72;;;21.63;;
29686;SDS011;16599;47.078;15.536;2022-11-20T03:33:57;60.15;;;22.40;;
29686;SDS011;16599;47.078;15.536;2022-11-20T03:36:25;58.35;;;22.77;;
29686;SDS011;16599;47.078;15.536;2022-11-20T03:38:53;55.35;;;20.65;;
29686;SDS011;16599;47.078;15.536;2022-11-20T03:41:22;56.00;;;21.58;;
29686;SDS011;16599;47.078;15.536;2022-11-20T03:43:58;54.38;;;21.90;;
29686;SDS011;16599;47.078;15.536;2022-11-20T03:46:27;56.67;;;21.70;;
29686;SDS011;16599;47.078;15.536;2022-11-20T03:48:54;59.80;;;21.73;;
29686;SDS011;16599;47.078;15.536;2022-11-20T03:51:23;58.15;;;21.27;;
29686;SDS011;16599;47.078;15.536;2022-11-20T03:53:52;59.53;;;22.10;;
29686;SDS011;16599;47.078;15.536;2022-11-20T03:56:25;57.80;;;21.23;;
29686;SDS011;16599;47.078;15.536;2022-11-20T03:58:53;58.50;;;22.70;;
29686;SDS011;16599;47.078;15.536;2022-11-20T04:01:24;82.05;;;20.95;;
29686;SDS011;16599;47.078;15.536;2022-11-20T04:03:53;68.40;;;23.10;;
29686;SDS011;16599;47.078;15.536;2022-11-20T04:06:22;105.07;;;21.65;;
29686;SDS011;16599;47.078;15.536;2022-11-20T04:08:49;54.60;;;21.50;;
29686;SDS011;16599;47.078;15.536;2022-11-20T04:11:30;75.03;;;25.88;;
29686;SDS011;16599;47.078;15.536;2022-11-20T04:13:59;196.32;;;23.73;;
29686;SDS011;16599;47.078;15.536;2022-11-20T04:16:28;57.22;;;21.02;;
29686;SDS011;16599;47.078;15.536;2022-11-20T04:18:58;73.50;;;21.77;;
29686;SDS011;16599;47.078;15.536;2022-11-20T04:21:26;108.30;;;21.35;;
29686;SDS011;16599;47.078;15.536;2022-11-20T04:23:53;116.03;;;22.13;;
29686;SDS011;16599;47.078;15.536;2022-11-20T04:26:21;127.57;;;20.52;;
29686;SDS011;16599;47.078;15.536;2022-11-20T04:28:49;97.22;;;23.50;;
29686;SDS011;16599;47.078;15.536;2022-11-20T04:31:19;49.20;;;20.05;;
29686;SDS011;16599;47.078;15.536;2022-11-20T04:33:47;64.47;;;20.60;;
29686;SDS011;16599;47.078;15.536;2022-11-20T04:36:15;54.00;;;21.42;;
29686;SDS011;16599;47.078;15.536;2022-11-20T04:38:50;96.53;;;24.20;;
29686;SDS011;16599;47.078;15.536;2022-11-20T04:41:23;64.40;;;21.38;;
29686;SDS011;16599;47.078;15.536;2022-11-20T04:43:55;54.05;;;19.73;;
29686;SDS011;16599;47.078;15.536;2022-11-20T04:46:26;57.75;;;18.70;;
29686;SDS011;16599;47.078;15.536;2022-11-20T04:48:53;71.72;;;26.52;;
29686;SDS011;16599;47.078;15.536;2022-11-20T04:51:20;83.72;;;19.60;;
29686;SDS011;16599;47.078;15.536;2022-11-20T04:53:48;48.53;;;19.83;;
29686;SDS011;16599;47.078;15.536;2022-11-20T04:56:15;56.88;;;20.65;;
29686;SDS011;16599;47.078;15.536;2022-11-20T04:58:42;48.65;;;18.63;;
29686;SDS011;16599;47.078;15.536;2022-11-20T05:01:10;43.30;;;17.48;;
29686;SDS011;16599;47.078;15.536;2022-11-20T05:03:38;48.22;;;19.45;;
29686;SDS011;16599;47.078;15.536;2022-11-20T05:06:10;44.92;;;18.63;;
29686;SDS011;16599;47.078;15.536;2022-11-20T05:08:38;47.00;;;19.65;;
29686;SDS011;16599;47.078;15.536;2022-11-20T05:11:09;49.95;;;19.27;;
29686;SDS011;16599;47.078;15.536;2022-11-20T05:13:38;47.58;;;19.15;;
29686;SDS011;16599;47.078;15.536;2022-11-20T05:16:06;45.45;;;19.35;;
29686;SDS011;16599;47.078;15.536;2022-11-20T05:18:38;44.55;;;18.40;;
29686;SDS011;16599;47.078;15.536;2022-11-20T05:21:05;56.17;;;19.02;;
29686;SDS011;16599;47.078;15.536;2022-11-20T05:23:33;42.45;;;18.67;;
29686;SDS011;16599;47.078;15.536;2022-11-20T05:26:01;44.00;;;17.88;;
29686;SDS011;16599;47.078;15.536;2022-11-20T05:28:28;45.90;;;17.95;;
29686;SDS011;16599;47.078;15.536;2022-11-20T05:30:56;46.03;;;17.35;;
29686;SDS011;16599;47.078;15.536;2022-11-20T05:33:29;41.55;;;18.10;;
29686;SDS011;16599;47.078;15.536;2022-11-20T05:36:00;49.85;;;18.70;;
29686;SDS011;16599;47.078;15.536;2022-11-20T05:38:27;60.72;;;18.02;;
29686;SDS011;16599;47.078;15.536;2022-11-20T05:40:54;107.95;;;20.30;;
29686;SDS011;16599;47.078;15.536;2022-11-20T05:43:21;74.28;;;19.45;;
29686;SDS011;16599;47.078;15.536;2022-11-20T05:45:51;90.60;;;20.25;;
29686;SDS011;16599;47.078;15.536;2022-11-20T05:48:19;51.53;;;19.30;;
29686;SDS011;16599;47.078;15.536;2022-11-20T05:50:47;48.00;;;19.10;;
29686;SDS011;16599;47.078;15.536;2022-11-20T05:53:14;49.17;;;18.27;;
29686;SDS011;16599;47.078;15.536;2022-11-20T05:55:41;47.33;;;17.75;;
29686;SDS011;16599;47.078;15.536;2022-11-20T05:58:08;47.70;;;18.92;;
29686;SDS011;16599;47.078;15.536;2022-11-20T06:00:35;50.92;;;19.67;;
29686;SDS011;16599;47.078;15.536;2022-11-20T06:03:02;79.82;;;19.23;;
29686;SDS011;16599;47.078;15.536;2022-11-20T06:05:29;47.30;;;18.67;;
29686;SDS011;16599;47.078;15.536;2022-11-20T06:07:56;44.75;;;16.98;;
29686;SDS011;16599;47.078;15.536;2022-11-20T06:10:22;49.22;;;18.40;;
29686;SDS011;16599;47.078;15.536;2022-11-20T06:12:49;83.53;;;20.05;;
29686;SDS011;16599;47.078;15.536;2022-11-20T06:15:16;55.40;;;19.08;;
29686;SDS011;16599;47.078;15.536;2022-11-20T06:17:43;60.25;;;17.60;;
29686;SDS011;16599;47.078;15.536;2022-11-20T06:20:10;66.88;;;18.25;;
29686;SDS011;16599;47.078;15.536;2022-11-20T06:22:37;49.22;;;19.63;;
29686;SDS011;16599;47.078;15.536;2022-11-20T06:25:03;51.67;;;19.10;;
29686;SDS011;16599;47.078;15.536;2022-11-20T06:27:30;51.42;;;19.08;;
29686;SDS011;16599;47.078;15.536;2022-11-20T06:29:57;56.13;;;19.55;;
29686;SDS011;16599;47.078;15.536;2022-11-20T06:32:24;56.25;;;19.25;;
29686;SDS011;16599;47.078;15.536;2022-11-20T06:34:50;45.67;;;19.25;;
29686;SDS011;16599;47.078;15.536;2022-11-20T06:37:17;81.05;;;20.73;;
29686;SDS011;16599;47.078;15.536;2022-11-20T06:39:44;50.20;;;20.40;;
29686;SDS011;16599;47.078;15.536;2022-11-20T06:42:11;82.75;;;21.13;;
29686;SDS011;16599;47.078;15.536;2022-11-20T06:44:38;66.63;;;20.30;;
29686;SDS011;16599;47.078;15.536;2022-11-20T06:47:04;50.22;;;18.88;;
29686;SDS011;16599;47.078;15.536;2022-11-20T06:49:31;52.08;;;20.48;;
29686;SDS011;16599;47.078;15.536;2022-11-20T06:52:00;48.95;;;17.75;;
29686;SDS011;16599;47.078;15.536;2022-11-20T06:54:27;55.67;;;19.77;;
29686;SDS011;16599;47.078;15.536;2022-11-20T06:56:53;67.88;;;20.38;;
29686;SDS011;16599;47.078;15.536;2022-11-20T06:59:20;62.45;;;23.45;;
29686;SDS011;16599;47.078;15.536;2022-11-20T07:01:47;51.30;;;19.85;;
29686;SDS011;16599;47.078;15.536;2022-11-20T07:04:14;64.07;;;21.48;;
29686;SDS011;16599;47.078;15.536;2022-11-20T07:06:44;86.53;;;21.77;;
29686;SDS011;16599;47.078;15.536;2022-11-20T07:09:10;81.05;;;21.67;;
29686;SDS011;16599;47.078;15.536;2022-11-20T07:11:38;86.07;;;22.65;;
29686;SDS011;16599;47.078;15.536;2022-11-20T07:14:05;105.72;;;23.33;;
29686;SDS011;16599;47.078;15.536;2022-11-20T07:16:32;106.45;;;20.98;;
29686;SDS011;16599;47.078;15.536;2022-11-20T07:18:58;106.72;;;20.35;;
29686;SDS011;16599;47.078;15.536;2022-11-20T07:21:25;246.88;;;18.25;;
29686;SDS011;16599;47.078;15.536;2022-11-20T07:23:52;130.30;;;17.27;;
29686;SDS011;16599;47.078;15.536;2022-11-20T07:26:19;114.45;;;18.58;;
29686;SDS011;16599;47.078;15.536;2022-11-20T07:28:46;181.45;;;19.90;;
29686;SDS011;16599;47.078;15.536;2022-11-20T07:31:13;218.75;;;19.40;;
29686;SDS011;16599;47.078;15.536;2022-11-20T07:33:44;55.20;;;19.27;;
29686;SDS011;16599;47.078;15.536;2022-11-20T07:36:11;48.15;;;18.58;;
29686;SDS011;16599;47.078;15.536;2022-11-20T07:38:38;47.17;;;19.00;;
29686;SDS011;16599;47.078;15.536;2022-11-20T07:41:05;113.10;;;23.60;;
29686;SDS011;16599;47.078;15.536;2022-11-20T07:43:32;100.75;;;24.85;;
29686;SDS011;16599;47.078;15.536;2022-11-20T07:46:06;125.63;;;25.48;;
29686;SDS011;16599;47.078;15.536;2022-11-20T07:48:33;94.32;;;19.25;;
29686;SDS011;16599;47.078;15.536;2022-11-20T07:51:07;46.70;;;19.60;;
29686;SDS011;16599;47.078;15.536;2022-11-20T07:53:33;88.47;;;21.00;;
29686;SDS011;16599;47.078;15.536;2022-11-20T07:56:06;126.93;;;16.85;;
29686;SDS011;16599;47.078;15.536;2022-11-20T08:01:19;171.90;;;22.70;;
29686;SDS011;16599;47.078;15.536;2022-11-20T08:03:46;83.88;;;18.60;;
29686;SDS011;16599;47.078;15.536;2022-11-20T08:06:13;54.78;;;18.38;;
29686;SDS011;16599;47.078;15.536;2022-11-20T08:08:40;97.07;;;20.10;;
29686;SDS011;16599;47.078;15.536;2022-11-20T08:11:08;88.03;;;18.45;;
29686;SDS011;16599;47.078;15.536;2022-11-20T08:13:54;66.05;;;18.40;;
29686;SDS011;16599;47.078;15.536;2022-11-20T08:16:46;44.03;;;18.95;;
29686;SDS011;16599;47.078;15.536;2022-11-20T08:19:14;91.78;;;21.35;;
29686;SDS011;16599;47.078;15.536;2022-11-20T08:21:42;77.32;;;19.48;;
29686;SDS011;16599;47.078;15.536;2022-11-20T08:24:18;44.47;;;19.20;;
29686;SDS011;16599;47.078;15.536;2022-11-20T08:26:45;54.00;;;21.73;;
29686;SDS011;16599;47.078;15.536;2022-11-20T08:29:12;55.50;;;20.90;;
29686;SDS011;16599;47.078;15.536;2022-11-20T08:31:39;58.83;;;21.25;;
29686;SDS011;16599;47.078;15.536;2022-11-20T08:34:06;82.25;;;21.58;;
29686;SDS011;16599;47.078;15.536;2022-11-20T08:36:35;88.68;;;22.17;;
29686;SDS011;16599;47.078;15.536;2022-11-20T08:39:02;70.50;;;23.65;;
29686;SDS011;16599;47.078;15.536;2022-11-20T08:41:29;71.70;;;23.92;;
29686;SDS011;16599;47.078;15.536;2022-11-20T08:44:00;51.10;;;21.17;;
29686;SDS011;16599;47.078;15.536;2022-11-20T08:46:34;55.95;;;23.35;;
29686;SDS011;16599;47.078;15.536;2022-11-20T08:49:06;62.83;;;24.13;;
29686;SDS011;16599;47.078;15.536;2022-11-20T08:51:43;52.35;;;22.83;;
29686;SDS011;16599;47.078;15.536;2022-11-20T08:54:29;62.05;;;25.88;;
29686;SDS011;16599;47.078;15.536;2022-11-20T08:56:56;57.35;;;23.77;;
29686;SDS011;16599;47.078;15.536;2022-11-20T08:59:23;54.55;;;23.17;;
29686;SDS011;16599;47.078;15.536;2022-11-20T09:02:10;66.82;;;30.90;;
29686;SDS011;16599;47.078;15.536;2022-11-20T09:04:37;75.97;;;25.15;;
29686;SDS011;16599;47.078;15.536;2022-11-20T09:07:03;80.53;;;26.00;;
29686;SDS011;16599;47.078;15.536;2022-11-20T09:09:30;60.40;;;24.88;;
29686;SDS011;16599;47.078;15.536;2022-11-20T09:11:57;60.03;;;22.33;;
29686;SDS011;16599;47.078;15.536;2022-11-20T09:14:24;45.00;;;20.67;;
29686;SDS011;16599;47.078;15.536;2022-11-20T09:16:55;55.33;;;22.25;;
29686;SDS011;16599;47.078;15.536;2022-11-20T09:19:25;50.58;;;22.00;;
29686;SDS011;16599;47.078;15.536;2022-11-20T09:22:01;56.08;;;22.20;;
29686;SDS011;16599;47.078;15.536;2022-11-20T09:24:28;53.75;;;22.55;;
29686;SDS011;16599;47.078;15.536;2022-11-20T09:26:55;52.08;;;23.67;;
29686;SDS011;16599;47.078;15.536;2022-11-20T09:29:22;58.35;;;22.70;;
29686;SDS011;16599;47.078;15.536;2022-11-20T09:31:49;53.00;;;22.75;;
29686;SDS011;16599;47.078;15.536;2022-11-20T09:34:16;48.78;;;22.20;;
29686;SDS011;16599;47.078;15.536;2022-11-20T09:36:42;49.88;;;22.50;;
29686;SDS011;16599;47.078;15.536;2022-11-20T09:39:09;49.95;;;23.52;;
29686;SDS011;16599;47.078;15.536;2022-11-20T09:47:07;48.95;;;21.27;;
29686;SDS011;16599;47.078;15.536;2022-11-20T09:52:49;47.55;;;21.35;;
29686;SDS011;16599;47.078;15.536;2022-11-20T09:55:27;64.70;;;29.67;;
29686;SDS011;16599;47.078;15.536;2022-11-20T09:57:56;53.85;;;24.45;;
29686;SDS011;16599;47.078;15.536;2022-11-20T10:00:25;47.40;;;22.90;;
29686;SDS011;16599;47.078;15.536;2022-11-20T10:05:51;44.13;;;23.33;;
29686;SDS011;16599;47.078;15.536;2022-11-20T10:08:39;49.65;;;22.88;;
29686;SDS011;16599;47.078;15.536;2022-11-20T10:11:20;41.25;;;20.67;;
29686;SDS011;16599;47.078;15.536;2022-11-20T10:14:15;49.38;;;22.35;;
29686;SDS011;16599;47.078;15.536;2022-11-20T10:20:29;50.42;;;25.83;;
29686;SDS011;16599;47.078;15.536;2022-11-20T10:26:17;45.50;;;21.73;;
29686;SDS011;16599;47.078;15.536;2022-11-20T10:37:17;28.42;;;15.57;;
29686;SDS011;16599;47.078;15.536;2022-11-20T10:47:59;25.58;;;14.43;;
29686;SDS011;16599;47.078;15.536;2022-11-20T10:50:49;20.88;;;13.38;;
29686;SDS011;16599;47.078;15.536;2022-11-20T10:53:33;20.40;;;11.80;;
29686;SDS011;16599;47.078;15.536;2022-11-20T11:01:41;19.02;;;12.27;;
29686;SDS011;16599;47.078;15.536;2022-11-20T11:04:15;18.20;;;12.10;;
29686;SDS011;16599;47.078;15.536;2022-11-20T11:06:54;18.17;;;11.27;;
29686;SDS011;16599;47.078;15.536;2022-11-20T11:09:51;20.95;;;11.02;;
29686;SDS011;16599;47.078;15.536;2022-11-20T11:12:20;21.52;;;11.77;;
29686;SDS011;16599;47.078;15.536;2022-11-20T11:14:49;17.80;;;11.55;;
29686;SDS011;16599;47.078;15.536;2022-11-20T11:20:03;17.98;;;10.88;;
29686;SDS011;16599;47.078;15.536;2022-11-20T11:23:10;19.58;;;11.32;;
29686;SDS011;16599;47.078;15.536;2022-11-20T11:25:31;21.65;;;13.05;;
29686;SDS011;16599;47.078;15.536;2022-11-20T11:28:01;23.02;;;13.77;;
29686;SDS011;16599;47.078;15.536;2022-11-20T11:30:46;21.70;;;12.85;;
29686;SDS011;16599;47.078;15.536;2022-11-20T11:33:19;20.33;;;12.40;;
29686;SDS011;16599;47.078;15.536;2022-11-20T11:35:55;17.88;;;11.02;;
29686;SDS011;16599;47.078;15.536;2022-11-20T11:38:34;19.80;;;11.43;;
29686;SDS011;16599;47.078;15.536;2022-11-20T11:41:06;21.13;;;12.27;;
29686;SDS011;16599;47.078;15.536;2022-11-20T11:43:54;18.63;;;11.20;;
29686;SDS011;16599;47.078;15.536;2022-11-20T11:46:55;18.83;;;10.30;;
29686;SDS011;16599;47.078;15.536;2022-11-20T11:49:24;11.60;;;6.80;;
29686;SDS011;16599;47.078;15.536;2022-11-20T12:00:08;16.48;;;14.38;;
29686;SDS011;16599;47.078;15.536;2022-11-20T12:05:17;7.18;;;4.68;;
29686;SDS011;16599;47.078;15.536;2022-11-20T12:13:44;9.95;;;6.10;;
29686;SDS011;16599;47.078;15.536;2022-11-20T12:16:22;7.78;;;4.68;;
29686;SDS011;16599;47.078;15.536;2022-11-20T12:18:50;7.72;;;4.40;;
29686;SDS011;16599;47.078;15.536;2022-11-20T12:21:40;7.07;;;4.05;;
29686;SDS011;16599;47.078;15.536;2022-11-20T12:24:27;9.55;;;4.18;;
29686;SDS011;16599;47.078;15.536;2022-11-20T12:30:09;5.70;;;3.80;;
29686;SDS011;16599;47.078;15.536;2022-11-20T12:35:57;4.50;;;3.17;;
29686;SDS011;16599;47.078;15.536;2022-11-20T12:47:37;5.25;;;3.28;;
29686;SDS011;16599;47.078;15.536;2022-11-20T12:50:08;3.50;;;2.80;;
29686;SDS011;16599;47.078;15.536;2022-11-20T12:53:04;5.63;;;3.50;;
29686;SDS011;16599;47.078;15.536;2022-11-20T12:58:26;4.07;;;2.63;;
29686;SDS011;16599;47.078;15.536;2022-11-20T13:01:25;5.43;;;3.55;;
29686;SDS011;16599;47.078;15.536;2022-11-20T13:06:46;5.70;;;3.60;;
29686;SDS011;16599;47.078;15.536;2022-11-20T13:09:15;5.57;;;3.50;;
29686;SDS011;16599;47.078;15.536;2022-11-20T13:15:08;9.60;;;5.10;;
29686;SDS011;16599;47.078;15.536;2022-11-20T13:19:55;10.05;;;4.35;;
29686;SDS011;16599;47.078;15.536;2022-11-20T13:22:25;7.45;;;4.50;;
29686;SDS011;16599;47.078;15.536;2022-11-20T13:25:22;9.73;;;4.80;;
29686;SDS011;16599;47.078;15.536;2022-11-20T13:27:49;5.80;;;3.60;;
29686;SDS011;16599;47.078;15.536;2022-11-20T13:30:17;7.03;;;4.40;;
29686;SDS011;16599;47.078;15.536;2022-11-20T13:35:31;7.32;;;3.75;;
29686;SDS011;16599;47.078;15.536;2022-11-20T13:38:09;6.22;;;3.85;;
29686;SDS011;16599;47.078;15.536;2022-11-20T13:43:22;6.88;;;3.85;;
29686;SDS011;16599;47.078;15.536;2022-11-20T13:46:04;7.93;;;4.70;;
29686;SDS011;16599;47.078;15.536;2022-11-20T13:48:42;8.52;;;5.28;;
29686;SDS011;16599;47.078;15.536;2022-11-20T13:57:18;8.27;;;4.72;;
29686;SDS011;16599;47.078;15.536;2022-11-20T14:00:03;7.68;;;4.50;;
29686;SDS011;16599;47.078;15.536;2022-11-20T14:02:39;7.97;;;4.82;;
29686;SDS011;16599;47.078;15.536;2022-11-20T14:05:18;8.95;;;5.10;;
29686;SDS011;16599;47.078;15.536;2022-11-20T14:07:48;8.63;;;4.93;;
29686;SDS011;16599;47.078;15.536;2022-11-20T14:10:21;7.78;;;5.30;;
29686;SDS011;16599;47.078;15.536;2022-11-20T14:12:57;11.35;;;6.00;;
29686;SDS011;16599;47.078;15.536;2022-11-20T14:17:53;8.95;;;5.90;;
29686;SDS011;16599;47.078;15.536;2022-11-20T14:20:20;9.00;;;5.80;;
29686;SDS011;16599;47.078;15.536;2022-11-20T14:22:53;8.25;;;5.53;;
29686;SDS011;16599;47.078;15.536;2022-11-20T14:27:54;9.25;;;5.47;;
29686;SDS011;16599;47.078;15.536;2022-11-20T14:30:35;11.18;;;5.53;;
29686;SDS011;16599;47.078;15.536;2022-11-20T14:33:09;8.68;;;5.32;;
29686;SDS011;16599;47.078;15.536;2022-11-20T14:35:48;11.40;;;5.85;;
29686;SDS011;16599;47.078;15.536;2022-11-20T14:38:18;9.25;;;5.88;;
29686;SDS011;16599;47.078;15.536;2022-11-20T14:40:49;7.60;;;5.00;;
29686;SDS011;16599;47.078;15.536;2022-11-20T14:43:18;9.88;;;4.95;;
29686;SDS011;16599;47.078;15.536;2022-11-20T14:45:51;9.77;;;5.50;;
29686;SDS011;16599;47.078;15.536;2022-11-20T14:48:30;9.48;;;5.47;;
29686;SDS011;16599;47.078;15.536;2022-11-20T14:51:10;9.98;;;5.32;;
29686;SDS011;16599;47.078;15.536;2022-11-20T14:53:38;10.32;;;5.97;;
29686;SDS011;16599;47.078;15.536;2022-11-20T14:56:05;7.85;;;5.45;;
29686;SDS011;16599;47.078;15.536;2022-11-20T14:58:32;9.93;;;4.95;;
29686;SDS011;16599;47.078;15.536;2022-11-20T15:01:01;10.85;;;6.47;;
29686;SDS011;16599;47.078;15.536;2022-11-20T15:03:30;9.32;;;5.80;;
29686;SDS011;16599;47.078;15.536;2022-11-20T15:06:02;12.32;;;6.05;;
29686;SDS011;16599;47.078;15.536;2022-11-20T15:11:16;8.63;;;5.80;;
29686;SDS011;16599;47.078;15.536;2022-11-20T15:13:46;9.82;;;6.18;;
29686;SDS011;16599;47.078;15.536;2022-11-20T15:16:20;10.35;;;6.40;;
29686;SDS011;16599;47.078;15.536;2022-11-20T15:18:48;10.77;;;6.50;;
29686;SDS011;16599;47.078;15.536;2022-11-20T15:21:16;10.23;;;5.93;;
29686;SDS011;16599;47.078;15.536;2022-11-20T15:23:44;9.57;;;6.03;;
29686;SDS011;16599;47.078;15.536;2022-11-20T15:31:24;11.60;;;6.45;;
29686;SDS011;16599;47.078;15.536;2022-11-20T15:33:51;10.50;;;6.38;;
29686;SDS011;16599;47.078;15.536;2022-11-20T15:36:18;10.52;;;6.30;;
29686;SDS011;16599;47.078;15.536;2022-11-20T15:38:45;11.40;;;6.13;;
29686;SDS011;16599;47.078;15.536;2022-11-20T15:41:12;9.88;;;6.50;;
29686;SDS011;16599;47.078;15.536;2022-11-20T15:43:39;11.48;;;6.47;;
29686;SDS011;16599;47.078;15.536;2022-11-20T15:48:44;14.90;;;8.57;;
29686;SDS011;16599;47.078;15.536;2022-11-20T15:51:28;18.33;;;9.20;;
29686;SDS011;16599;47.078;15.536;2022-11-20T15:54:15;19.83;;;8.80;;
29686;SDS011;16599;47.078;15.536;2022-11-20T15:56:48;18.55;;;10.27;;
29686;SDS011;16599;47.078;15.536;2022-11-20T15:59:18;17.02;;;9.82;;
29686;SDS011;16599;47.078;15.536;2022-11-20T16:01:45;16.88;;;9.65;;
29686;SDS011;16599;47.078;15.536;2022-11-20T16:04:13;16.77;;;10.15;;
29686;SDS011;16599;47.078;15.536;2022-11-20T16:06:42;16.70;;;10.05;;
29686;SDS011;16599;47.078;15.536;2022-11-20T16:09:09;19.42;;;10.00;;
29686;SDS011;16599;47.078;15.536;2022-11-20T16:11:36;16.80;;;10.13;;
29686;SDS011;16599;47.078;15.536;2022-11-20T16:14:04;14.45;;;8.93;;
29686;SDS011;16599;47.078;15.536;2022-11-20T16:16:51;14.73;;;8.07;;
29686;SDS011;16599;47.078;15.536;2022-11-20T16:19:18;14.25;;;8.85;;
29686;SDS011;16599;47.078;15.536;2022-11-20T16:21:45;15.45;;;8.82;;
29686;SDS011;16599;47.078;15.536;2022-11-20T16:24:13;15.52;;;10.07;;
29686;SDS011;16599;47.078;15.536;2022-11-20T16:26:40;15.20;;;9.73;;
29686;SDS011;16599;47.078;15.536;2022-11-20T16:29:07;16.73;;;9.50;;
29686;SDS011;16599;47.078;15.536;2022-11-20T16:31:36;17.38;;;10.38;;
29686;SDS011;16599;47.078;15.536;2022-11-20T16:34:04;16.25;;;9.85;;
29686;SDS011;16599;47.078;15.536;2022-11-20T16:36:48;15.98;;;10.23;;
29686;SDS011;16599;47.078;15.536;2022-11-20T16:39:15;16.88;;;9.93;;
29686;SDS011;16599;47.078;15.536;2022-11-20T16:41:48;18.70;;;11.75;;
29686;SDS011;16599;47.078;15.536;2022-11-20T16:44:15;23.52;;;14.35;;
29686;SDS011;16599;47.078;15.536;2022-11-20T16:46:42;22.58;;;13.65;;
29686;SDS011;16599;47.078;15.536;2022-11-20T16:49:13;15.60;;;9.15;;
29686;SDS011;16599;47.078;15.536;2022-11-20T16:51:41;19.83;;;9.82;;